createdAt,value
2018-12-09T00:01:42.971Z,30.30
2018-12-09T00:04:11.589Z,29.80
2018-12-09T00:06:40.084Z,28.10
2018-12-09T00:09:09.164Z,28.73
2018-12-09T00:11:38.006Z,27.30
2018-12-09T00:14:06.585Z,27.53
2018-12-09T00:16:35.155Z,26.13
2018-12-09T00:19:03.707Z,25.77
2018-12-09T00:21:32.328Z,25.70
2018-12-09T00:24:00.924Z,26.90
2018-12-09T00:26:29.464Z,24.33
2018-12-09T00:28:58.597Z,23.63
2018-12-09T00:31:27.106Z,25.30
2018-12-09T00:33:55.823Z,21.23
2018-12-09T00:36:24.995Z,21.70
2018-12-09T00:38:53.551Z,21.97
2018-12-09T00:41:22.111Z,20.57
2018-12-09T00:43:51.088Z,22.83
2018-12-09T00:46:20.469Z,22.63
2018-12-09T00:48:49.507Z,22.37
2018-12-09T00:51:18.127Z,22.57
2018-12-09T00:53:46.639Z,24.07
2018-12-09T00:56:15.163Z,24.73
2018-12-09T00:58:43.754Z,24.10
2018-12-09T01:01:12.887Z,21.93
2018-12-09T01:03:41.427Z,22.20
2018-12-09T01:06:11.202Z,21.57
2018-12-09T01:08:39.776Z,19.93
2018-12-09T01:11:08.342Z,19.23
2018-12-09T01:13:37.073Z,18.43
2018-12-09T01:16:05.626Z,17.90
2018-12-09T01:18:34.099Z,16.87
2018-12-09T01:21:03.325Z,16.13
2018-12-09T01:23:31.928Z,14.97
2018-12-09T01:26:00.610Z,15.60
2018-12-09T01:28:29.136Z,15.50
2018-12-09T01:30:57.966Z,16.17
2018-12-09T01:33:26.598Z,15.37
2018-12-09T01:35:56.527Z,16.20
2018-12-09T01:38:25.295Z,15.40
2018-12-09T01:40:54.761Z,15.33
2018-12-09T01:43:23.832Z,15.37
2018-12-09T01:45:52.428Z,16.87
2018-12-09T01:48:21.179Z,17.00
2018-12-09T01:50:50.056Z,17.47
2018-12-09T01:54:33.562Z,16.37
2018-12-09T01:57:02.849Z,17.37
2018-12-09T01:59:32.059Z,19.43
2018-12-09T02:02:00.720Z,18.83
2018-12-09T02:04:30.149Z,18.50
2018-12-09T02:06:59.001Z,18.70
2018-12-09T02:09:27.594Z,18.67
2018-12-09T02:11:56.221Z,18.07
2018-12-09T02:14:25.145Z,17.80
2018-12-09T02:16:54.308Z,18.77
2018-12-09T02:19:24.348Z,18.13
2018-12-09T02:21:53.540Z,18.83
2018-12-09T02:24:22.762Z,18.23
2018-12-09T02:26:52.094Z,16.37
2018-12-09T02:29:21.597Z,12.93
2018-12-09T02:31:50.806Z,13.73
2018-12-09T02:34:21.166Z,14.70
2018-12-09T02:36:49.870Z,12.07
2018-12-09T02:39:18.732Z,10.07
2018-12-09T02:41:48.233Z,14.07
2018-12-09T02:44:16.796Z,13.73
2018-12-09T02:46:46.551Z,11.50
2018-12-09T02:49:15.385Z,12.57
2018-12-09T02:51:44.135Z,12.80
2018-12-09T02:54:13.523Z,13.50
2018-12-09T02:56:42.118Z,11.37
2018-12-09T02:59:10.751Z,11.60
2018-12-09T03:01:39.426Z,10.97
2018-12-09T03:04:08.557Z,11.33
2018-12-09T03:06:37.505Z,11.03
2018-12-09T03:09:09.565Z,10.17
2018-12-09T03:11:38.120Z,9.80
2018-12-09T03:14:06.701Z,11.13
2018-12-09T03:16:36.053Z,10.73
2018-12-09T03:19:04.564Z,10.70
2018-12-09T03:21:33.168Z,11.50
2018-12-09T03:24:01.895Z,11.13
2018-12-09T03:26:30.449Z,11.03
2018-12-09T03:28:59.536Z,11.47
2018-12-09T03:31:28.852Z,10.70
2018-12-09T03:33:57.582Z,17.93
2018-12-09T03:36:26.203Z,17.80
2018-12-09T03:38:54.945Z,18.90
2018-12-09T03:41:23.764Z,17.77
2018-12-09T03:43:52.305Z,16.97
2018-12-09T03:46:20.860Z,17.67
2018-12-09T03:48:51.130Z,18.43
2018-12-09T03:51:20.118Z,18.53
2018-12-09T03:53:48.899Z,18.57
2018-12-09T03:56:17.107Z,19.60
2018-12-09T03:58:45.976Z,19.27
2018-12-09T04:01:14.215Z,20.40
2018-12-09T04:03:42.463Z,19.87
2018-12-09T04:06:10.729Z,20.17
2018-12-09T04:08:39.380Z,20.10
2018-12-09T04:11:07.986Z,19.90
2018-12-09T04:13:36.202Z,19.57
2018-12-09T04:16:05.537Z,20.40
2018-12-09T04:18:34.864Z,20.73
2018-12-09T04:21:03.395Z,20.20
2018-12-09T04:23:31.979Z,20.73
2018-12-09T04:26:03.343Z,20.03
2018-12-09T04:28:31.995Z,20.77
2018-12-09T04:31:01.936Z,20.37
2018-12-09T04:33:30.807Z,20.17
2018-12-09T04:35:59.361Z,20.63
2018-12-09T04:38:27.966Z,19.57
2018-12-09T04:40:56.673Z,21.83
2018-12-09T04:43:25.486Z,21.13
2018-12-09T04:45:54.367Z,20.23
2018-12-09T04:48:23.403Z,20.83
2018-12-09T04:50:52.503Z,21.03
2018-12-09T04:53:21.162Z,20.87
2018-12-09T04:55:49.801Z,19.70
2018-12-09T04:58:19.177Z,21.23
2018-12-09T05:00:55.771Z,20.43
2018-12-09T05:03:24.397Z,19.53
2018-12-09T05:05:53.098Z,20.13
2018-12-09T05:08:21.699Z,21.07
2018-12-09T05:10:50.284Z,20.47
2018-12-09T05:13:18.836Z,19.80
2018-12-09T05:15:47.491Z,20.50
2018-12-09T05:18:16.135Z,19.70
2018-12-09T05:20:45.220Z,19.70
2018-12-09T05:23:14.061Z,20.37
2018-12-09T05:25:42.585Z,19.97
2018-12-09T05:28:11.205Z,20.43
2018-12-09T05:30:40.002Z,18.93
2018-12-09T05:33:09.566Z,18.80
2018-12-09T05:35:38.251Z,19.47
2018-12-09T05:38:06.881Z,19.93
2018-12-09T05:40:35.606Z,19.30
2018-12-09T05:43:04.220Z,18.43
2018-12-09T05:45:33.266Z,20.00
2018-12-09T05:48:01.793Z,20.07
2018-12-09T05:50:30.352Z,19.40
2018-12-09T05:52:59.004Z,20.87
2018-12-09T05:55:27.787Z,18.53
2018-12-09T05:57:56.448Z,18.90
2018-12-09T06:00:25.613Z,19.77
2018-12-09T06:02:56.264Z,19.27
2018-12-09T06:05:24.867Z,18.83
2018-12-09T06:07:54.938Z,18.33
2018-12-09T06:10:23.470Z,20.53
2018-12-09T06:12:52.144Z,19.33
2018-12-09T06:15:20.862Z,19.87
2018-12-09T06:17:49.433Z,19.37
2018-12-09T06:20:18.105Z,19.33
2018-12-09T06:22:46.695Z,18.73
2018-12-09T06:25:15.272Z,19.80
2018-12-09T06:27:43.822Z,19.30
2018-12-09T06:30:12.544Z,19.40
2018-12-09T06:32:42.044Z,20.07
2018-12-09T06:35:10.943Z,19.00
2018-12-09T06:37:39.465Z,19.47
2018-12-09T06:40:08.041Z,16.77
2018-12-09T06:42:37.134Z,17.47
2018-12-09T06:45:07.876Z,17.70
2018-12-09T06:47:37.661Z,17.40
2018-12-09T06:50:08.765Z,18.00
2018-12-09T06:52:37.313Z,16.40
2018-12-09T06:55:07.532Z,16.67
2018-12-09T06:57:36.108Z,15.93
2018-12-09T07:00:06.661Z,16.40
2018-12-09T07:02:35.218Z,15.97
2018-12-09T07:05:04.638Z,15.63
2018-12-09T07:07:33.627Z,15.63
2018-12-09T07:10:02.130Z,15.10
2018-12-09T07:12:30.708Z,14.80
2018-12-09T07:14:59.183Z,14.83
2018-12-09T07:17:28.088Z,14.53
2018-12-09T07:19:56.823Z,15.17
2018-12-09T07:22:26.435Z,14.37
2018-12-09T07:24:55.051Z,15.17
2018-12-09T07:27:25.027Z,13.43
2018-12-09T07:29:53.529Z,13.20
2018-12-09T07:32:22.311Z,13.30
2018-12-09T07:34:51.442Z,13.40
2018-12-09T07:37:19.647Z,11.50
2018-12-09T07:39:48.416Z,11.43
2018-12-09T07:42:17.004Z,12.63
2018-12-09T07:44:45.613Z,12.23
2018-12-09T07:47:14.095Z,11.97
2018-12-09T07:49:43.210Z,11.77
2018-12-09T07:52:11.391Z,12.17
2018-12-09T07:54:39.779Z,11.87
2018-12-09T07:57:08.083Z,12.60
2018-12-09T07:59:36.284Z,12.47
2018-12-09T08:02:04.922Z,12.80
2018-12-09T08:04:33.072Z,12.17
2018-12-09T08:07:01.245Z,13.23
2018-12-09T08:09:29.691Z,12.80
2018-12-09T08:11:57.928Z,12.73
2018-12-09T08:14:26.684Z,13.50
2018-12-09T08:16:54.864Z,13.93
2018-12-09T08:19:23.045Z,14.40
2018-12-09T08:21:51.309Z,15.17
2018-12-09T08:24:19.432Z,14.80
2018-12-09T08:26:47.611Z,14.17
2018-12-09T08:29:15.928Z,13.23
2018-12-09T08:31:44.179Z,12.40
2018-12-09T08:34:12.679Z,14.27
2018-12-09T08:36:40.827Z,14.40
2018-12-09T08:39:08.966Z,14.23
2018-12-09T08:41:37.608Z,14.03
2018-12-09T08:44:06.103Z,13.33
2018-12-09T08:46:34.815Z,15.47
2018-12-09T08:49:03.895Z,13.63
2018-12-09T08:51:33.742Z,15.03
2018-12-09T08:54:02.829Z,14.80
2018-12-09T08:56:32.104Z,15.10
2018-12-09T08:59:00.401Z,14.97
2018-12-09T09:01:28.594Z,15.37
2018-12-09T09:03:56.767Z,14.57
2018-12-09T09:06:24.919Z,16.17
2018-12-09T09:08:53.420Z,15.87
2018-12-09T09:11:22.294Z,14.93
2018-12-09T09:13:50.794Z,15.50
2018-12-09T09:16:19.307Z,15.50
2018-12-09T09:18:47.813Z,15.20
2018-12-09T09:21:16.343Z,14.80
2018-12-09T09:23:44.979Z,14.80
2018-12-09T09:26:13.901Z,15.03
2018-12-09T09:28:43.003Z,14.87
2018-12-09T09:31:11.700Z,14.77
2018-12-09T09:33:40.893Z,14.53
2018-12-09T09:36:09.914Z,13.37
2018-12-09T09:38:38.462Z,14.47
2018-12-09T09:41:07.071Z,16.07
2018-12-09T09:43:35.679Z,13.87
2018-12-09T09:46:04.206Z,14.07
2018-12-09T09:48:33.021Z,13.03
2018-12-09T09:51:01.516Z,13.10
2018-12-09T09:53:30.643Z,14.07
2018-12-09T09:55:59.200Z,14.90
2018-12-09T09:58:28.715Z,14.77
2018-12-09T10:00:58.448Z,12.70
2018-12-09T10:03:26.961Z,15.00
2018-12-09T10:05:55.458Z,15.07
2018-12-09T10:08:24.297Z,16.03
2018-12-09T10:10:53.317Z,16.07
2018-12-09T10:13:22.605Z,14.97
2018-12-09T10:15:51.191Z,14.27
2018-12-09T10:18:19.422Z,15.37
2018-12-09T10:20:47.980Z,15.60
2018-12-09T10:23:16.495Z,15.07
2018-12-09T10:25:45.664Z,16.53
2018-12-09T10:28:14.138Z,16.03
2018-12-09T10:30:42.640Z,14.80
2018-12-09T10:33:11.164Z,16.63
2018-12-09T10:35:39.709Z,15.50
2018-12-09T10:38:08.776Z,17.20
2018-12-09T10:40:37.261Z,17.47
2018-12-09T10:43:05.803Z,17.23
2018-12-09T10:45:34.384Z,15.20
2018-12-09T10:48:03.069Z,19.17
2018-12-09T10:50:31.672Z,18.40
2018-12-09T10:53:00.153Z,18.27
2018-12-09T10:55:29.280Z,18.20
2018-12-09T10:57:57.828Z,14.63
2018-12-09T11:00:31.690Z,18.93
2018-12-09T11:03:00.819Z,18.03
2018-12-09T11:05:29.299Z,17.63
2018-12-09T11:07:57.856Z,19.07
2018-12-09T11:10:26.357Z,16.50
2018-12-09T11:12:54.840Z,17.17
2018-12-09T11:15:23.613Z,18.97
2018-12-09T11:17:52.127Z,17.47
2018-12-09T11:20:20.872Z,16.27
2018-12-09T11:22:49.370Z,16.70
2018-12-09T11:25:17.966Z,17.93
2018-12-09T11:27:46.603Z,18.37
2018-12-09T11:30:16.320Z,17.47
2018-12-09T11:32:45.486Z,16.40
2018-12-09T11:35:14.598Z,16.63
2018-12-09T11:37:43.647Z,17.57
2018-12-09T11:40:12.575Z,17.57
2018-12-09T11:42:41.181Z,17.07
2018-12-09T11:45:09.940Z,16.90
2018-12-09T11:47:39.826Z,16.80
2018-12-09T11:50:09.403Z,16.47
2018-12-09T11:52:38.215Z,18.47
2018-12-09T11:55:07.370Z,17.20
2018-12-09T11:57:36.439Z,19.03
2018-12-09T12:00:08.892Z,18.27
2018-12-09T12:02:37.991Z,17.83
2018-12-09T12:05:07.776Z,16.27
2018-12-09T12:07:36.338Z,17.73
2018-12-09T12:10:06.093Z,19.40
2018-12-09T12:12:34.633Z,16.33
2018-12-09T12:15:04.448Z,16.57
2018-12-09T12:17:33.748Z,18.27
2018-12-09T12:20:03.036Z,17.57
2018-12-09T12:22:32.899Z,16.77
2018-12-09T12:25:01.495Z,17.47
2018-12-09T12:27:30.954Z,18.07
2018-12-09T12:29:59.474Z,18.20
2018-12-09T12:32:28.105Z,17.33
2018-12-09T12:34:56.630Z,18.30
2018-12-09T12:37:25.273Z,17.77
2018-12-09T12:39:54.262Z,17.73
2018-12-09T12:42:22.772Z,17.13
2018-12-09T12:44:51.877Z,15.13
2018-12-09T12:47:20.589Z,15.90
2018-12-09T12:49:49.525Z,17.40
2018-12-09T12:52:18.564Z,12.43
2018-12-09T12:54:47.049Z,13.77
2018-12-09T12:57:15.569Z,16.60
2018-12-09T12:59:44.491Z,16.47
2018-12-09T13:02:12.957Z,16.03
2018-12-09T13:04:41.727Z,17.20
2018-12-09T13:07:10.302Z,18.00
2018-12-09T13:09:38.824Z,17.47
2018-12-09T13:12:07.413Z,14.57
2018-12-09T13:14:36.236Z,18.83
2018-12-09T13:17:05.197Z,19.07
2018-12-09T13:19:33.755Z,18.60
2018-12-09T13:22:02.271Z,14.33
2018-12-09T13:24:30.766Z,18.70
2018-12-09T13:27:00.362Z,18.40
2018-12-09T13:29:29.018Z,18.27
2018-12-09T13:31:58.048Z,17.20
2018-12-09T13:34:26.751Z,17.97
2018-12-09T13:36:55.653Z,19.03
2018-12-09T13:39:24.255Z,19.47
2018-12-09T13:41:53.802Z,16.83
2018-12-09T13:44:22.344Z,10.97
2018-12-09T13:46:50.852Z,18.77
2018-12-09T13:49:19.419Z,18.57
2018-12-09T13:51:48.354Z,18.63
2018-12-09T13:54:17.026Z,16.40
2018-12-09T13:56:45.668Z,17.60
2018-12-09T13:59:14.526Z,18.93
2018-12-09T14:01:43.777Z,10.93
2018-12-09T14:04:13.251Z,20.57
2018-12-09T14:06:42.732Z,22.40
2018-12-09T14:09:11.878Z,22.97
2018-12-09T14:11:40.970Z,22.53
2018-12-09T14:14:10.547Z,24.07
2018-12-09T14:16:39.077Z,24.00
2018-12-09T14:19:08.212Z,22.90
2018-12-09T14:21:37.621Z,19.53
2018-12-09T14:24:06.156Z,19.63
2018-12-09T14:26:34.671Z,23.37
2018-12-09T14:29:03.519Z,24.63
2018-12-09T14:31:34.101Z,22.90
2018-12-09T14:34:03.482Z,23.93
2018-12-09T14:36:32.028Z,24.33
2018-12-09T14:39:00.531Z,23.70
2018-12-09T14:41:29.044Z,14.93
2018-12-09T14:43:57.880Z,23.47
2018-12-09T14:46:26.491Z,23.20
2018-12-09T14:48:55.024Z,22.87
2018-12-09T14:51:23.848Z,12.67
2018-12-09T14:53:52.312Z,23.57
2018-12-09T14:56:20.959Z,23.33
2018-12-09T14:58:50.195Z,19.23
2018-12-09T15:01:19.718Z,23.17
2018-12-09T15:03:48.520Z,25.17
2018-12-09T15:06:17.053Z,24.57
2018-12-09T15:08:45.791Z,21.83
2018-12-09T15:11:14.340Z,23.87
2018-12-09T15:13:44.055Z,23.57
2018-12-09T15:16:13.380Z,24.10
2018-12-09T15:18:41.842Z,15.03
2018-12-09T15:21:11.427Z,23.27
2018-12-09T15:23:39.922Z,24.87
2018-12-09T15:26:08.400Z,19.77
2018-12-09T15:28:36.991Z,18.70
2018-12-09T15:31:05.485Z,25.17
2018-12-09T15:33:34.073Z,27.50
2018-12-09T15:36:02.619Z,26.43
2018-12-09T15:38:31.880Z,27.17
2018-12-09T15:41:00.398Z,28.20
2018-12-09T15:43:28.945Z,28.07
2018-12-09T15:45:58.123Z,27.00
2018-12-09T15:48:27.575Z,29.03
2018-12-09T15:50:56.860Z,28.27
2018-12-09T15:53:25.457Z,27.97
2018-12-09T15:55:54.085Z,27.07
2018-12-09T15:58:22.811Z,28.50
2018-12-09T16:00:55.597Z,27.33
2018-12-09T16:03:24.165Z,27.50
2018-12-09T16:05:53.371Z,28.00
2018-12-09T16:08:22.755Z,29.23
2018-12-09T16:10:51.316Z,28.20
2018-12-09T16:13:20.479Z,26.43
2018-12-09T16:15:48.955Z,29.60
2018-12-09T16:18:17.481Z,29.40
2018-12-09T16:20:46.057Z,29.17
2018-12-09T16:23:14.937Z,29.47
2018-12-09T16:25:43.694Z,29.20
2018-12-09T16:28:13.720Z,29.40
2018-12-09T16:30:42.262Z,29.47
2018-12-09T16:33:11.012Z,29.80
2018-12-09T16:35:39.648Z,28.33
2018-12-09T16:38:08.149Z,30.73
2018-12-09T16:40:36.686Z,29.33
2018-12-09T16:43:05.303Z,30.83
2018-12-09T16:45:34.142Z,33.00
2018-12-09T16:48:03.821Z,30.37
2018-12-09T16:50:32.342Z,32.03
2018-12-09T16:53:00.826Z,31.67
2018-12-09T16:55:29.926Z,33.73
2018-12-09T16:57:58.761Z,33.70
2018-12-09T17:00:27.270Z,32.70
2018-12-09T17:02:56.434Z,32.90
2018-12-09T17:05:24.908Z,33.40
2018-12-09T17:07:54.796Z,34.37
2018-12-09T17:10:23.837Z,34.43
2018-12-09T17:12:52.915Z,34.30
2018-12-09T17:15:21.501Z,34.33
2018-12-09T17:17:50.116Z,34.73
2018-12-09T17:20:18.652Z,34.90
2018-12-09T17:22:47.595Z,35.03
2018-12-09T17:25:16.235Z,36.40
2018-12-09T17:27:44.783Z,36.40
2018-12-09T17:30:13.365Z,34.67
2018-12-09T17:32:41.849Z,35.70
2018-12-09T17:35:10.499Z,34.07
2018-12-09T17:37:39.216Z,35.20
2018-12-09T17:40:09.770Z,34.83
2018-12-09T17:42:38.348Z,36.13
2018-12-09T17:45:08.347Z,36.53
2018-12-09T17:47:38.035Z,35.33
2018-12-09T17:50:07.360Z,36.87
2018-12-09T17:52:35.837Z,37.80
2018-12-09T17:55:05.042Z,38.20
2018-12-09T17:57:33.547Z,38.50
2018-12-09T18:00:02.223Z,37.53
2018-12-09T18:02:30.845Z,38.97
2018-12-09T18:04:59.341Z,38.10
2018-12-09T18:07:27.816Z,41.17
2018-12-09T18:09:57.180Z,40.70
2018-12-09T18:12:25.793Z,39.63
2018-12-09T18:14:54.285Z,40.53
2018-12-09T18:17:22.813Z,40.63
2018-12-09T18:19:51.321Z,40.67
2018-12-09T18:22:19.839Z,40.90
2018-12-09T18:24:49.250Z,40.87
2018-12-09T18:27:18.480Z,41.83
2018-12-09T18:29:46.954Z,40.67
2018-12-09T18:32:16.622Z,39.73
2018-12-09T18:34:45.957Z,40.60
2018-12-09T18:37:15.351Z,43.30
2018-12-09T18:39:43.990Z,42.33
2018-12-09T18:42:13.476Z,41.53
2018-12-09T18:44:42.388Z,42.30
2018-12-09T18:47:11.660Z,42.77
2018-12-09T18:49:40.247Z,43.73
2018-12-09T18:52:08.735Z,43.40
2018-12-09T18:54:37.311Z,44.37
2018-12-09T18:57:05.844Z,44.63
2018-12-09T18:59:35.119Z,44.97
2018-12-09T19:02:04.098Z,45.77
2018-12-09T19:04:32.727Z,43.30
2018-12-09T19:07:01.348Z,45.33
2018-12-09T19:09:30.030Z,46.20
2018-12-09T19:11:58.947Z,46.50
2018-12-09T19:14:27.694Z,45.50
2018-12-09T19:16:56.443Z,48.33
2018-12-09T19:19:24.940Z,50.50
2018-12-09T19:21:53.497Z,50.30
2018-12-09T19:24:21.996Z,48.80
2018-12-09T19:26:50.862Z,48.73
2018-12-09T19:29:19.948Z,50.97
2018-12-09T19:31:48.727Z,48.77
2018-12-09T19:34:17.193Z,49.83
2018-12-09T19:36:45.674Z,49.50
2018-12-09T19:39:14.305Z,49.20
2018-12-09T19:41:43.421Z,50.90
2018-12-09T19:44:12.071Z,49.73
2018-12-09T19:46:40.635Z,52.20
2018-12-09T19:49:09.887Z,51.03
2018-12-09T19:51:38.929Z,50.40
2018-12-09T19:54:07.531Z,51.30
2018-12-09T19:56:36.334Z,50.50
2018-12-09T19:59:04.949Z,49.73
2018-12-09T20:01:34.156Z,51.73
2018-12-09T20:04:03.779Z,51.83
2018-12-09T20:06:32.902Z,51.07
2018-12-09T20:09:01.083Z,53.57
2018-12-09T20:11:30.276Z,53.53
2018-12-09T20:14:00.358Z,53.27
2018-12-09T20:16:29.027Z,53.03
2018-12-09T20:18:57.537Z,51.87
2018-12-09T20:21:26.589Z,53.00
2018-12-09T20:23:55.140Z,54.77
2018-12-09T20:26:23.611Z,54.53
2018-12-09T20:28:52.258Z,56.53
2018-12-09T20:31:20.783Z,56.83
2018-12-09T20:33:49.311Z,57.77
2018-12-09T20:36:17.810Z,59.00
2018-12-09T20:38:46.333Z,59.93
2018-12-09T20:41:15.600Z,60.20
2018-12-09T20:43:44.748Z,57.90
2018-12-09T20:46:13.334Z,57.57
2018-12-09T20:48:41.984Z,58.87
2018-12-09T20:51:10.490Z,57.80
2018-12-09T20:53:39.111Z,59.83
2018-12-09T20:56:07.738Z,60.70
2018-12-09T20:58:36.234Z,59.97
2018-12-09T21:01:05.520Z,59.57
2018-12-09T21:03:34.015Z,58.13
2018-12-09T21:06:02.941Z,60.60
2018-12-09T21:08:31.502Z,57.07
2018-12-09T21:11:00.639Z,58.57
2018-12-09T21:13:29.140Z,58.10
2018-12-09T21:15:57.858Z,58.37
2018-12-09T21:18:26.522Z,58.23
2018-12-09T21:20:54.986Z,58.37
2018-12-09T21:23:23.642Z,60.17
2018-12-09T21:25:52.123Z,60.97
2018-12-09T21:28:20.640Z,60.27
2018-12-09T21:30:49.686Z,60.10
2018-12-09T21:33:18.204Z,61.57
2018-12-09T21:35:47.512Z,61.23
2018-12-09T21:38:16.270Z,60.93
2018-12-09T21:40:44.756Z,61.00
2018-12-09T21:43:13.362Z,60.13
2018-12-09T21:45:41.830Z,60.90
2018-12-09T21:48:12.449Z,63.10
2018-12-09T21:50:40.996Z,61.50
2018-12-09T21:53:10.051Z,62.73
2018-12-09T21:55:39.322Z,64.00
2018-12-09T21:58:09.172Z,61.73
2018-12-09T22:00:37.782Z,63.70
2018-12-09T22:03:08.715Z,59.67
2018-12-09T22:05:38.540Z,64.80
2018-12-09T22:08:07.778Z,62.37
2018-12-09T22:10:36.382Z,63.33
2018-12-09T22:13:05.073Z,63.70
2018-12-09T22:15:33.560Z,65.27
2018-12-09T22:18:03.482Z,67.03
2018-12-09T22:20:32.106Z,65.63
2018-12-09T22:23:00.616Z,67.87
2018-12-09T22:25:29.175Z,69.23
2018-12-09T22:27:57.700Z,67.60
2018-12-09T22:30:26.271Z,68.37
2018-12-09T22:32:55.357Z,67.00
2018-12-09T22:35:24.784Z,69.23
2018-12-09T22:37:53.385Z,68.97
2018-12-09T22:40:22.332Z,67.63
2018-12-09T22:42:51.269Z,64.63
2018-12-09T22:45:19.733Z,64.97
2018-12-09T22:47:48.312Z,68.10
2018-12-09T22:50:16.944Z,69.53
2018-12-09T22:52:45.446Z,67.67
2018-12-09T22:55:14.071Z,69.30
2018-12-09T22:57:43.750Z,65.83
2018-12-09T23:00:24.219Z,65.60
2018-12-09T23:02:58.416Z,66.53
2018-12-09T23:05:27.308Z,64.43
2018-12-09T23:07:56.161Z,69.03
2018-12-09T23:10:25.380Z,66.47
2018-12-09T23:12:54.040Z,68.50
2018-12-09T23:15:22.506Z,63.90
2018-12-09T23:17:51.152Z,65.73
2018-12-09T23:20:20.148Z,66.57
2018-12-09T23:22:48.586Z,64.53
2018-12-09T23:25:17.061Z,68.67
2018-12-09T23:27:45.540Z,66.33
2018-12-09T23:30:14.510Z,67.00
2018-12-09T23:32:43.088Z,69.17
2018-12-09T23:35:11.654Z,68.47
2018-12-09T23:37:40.205Z,68.77
2018-12-09T23:40:08.867Z,70.40
2018-12-09T23:42:37.431Z,70.73
2018-12-09T23:45:07.818Z,70.33
2018-12-09T23:47:36.364Z,73.37
2018-12-09T23:50:05.495Z,74.17
2018-12-09T23:52:33.962Z,73.03
2018-12-09T23:55:03.080Z,72.73
2018-12-09T23:57:31.616Z,67.10
